sensor_id;sensor_type;location;lat;lon;timestamp;temperature;humidity
16174;DHT22;14031;50.158;8.626;2023-09-19T00:02:21;19.70;99.90
16174;DHT22;14031;50.158;8.626;2023-09-19T00:04:48;19.60;99.90
16174;DHT22;14031;50.158;8.626;2023-09-19T00:07:15;19.70;99.90
16174;DHT22;14031;50.158;8.626;2023-09-19T00:09:42;19.70;99.90
16174;DHT22;14031;50.158;8.626;2023-09-19T00:12:09;19.70;99.90
16174;DHT22;14031;50.158;8.626;2023-09-19T00:14:38;19.70;99.90
16174;DHT22;14031;50.158;8.626;2023-09-19T00:17:05;19.60;99.90
16174;DHT22;14031;50.158;8.626;2023-09-19T00:19:35;19.60;99.90
16174;DHT22;14031;50.158;8.626;2023-09-19T00:22:03;19.60;99.90
16174;DHT22;14031;50.158;8.626;2023-09-19T00:24:30;19.60;99.90
16174;DHT22;14031;50.158;8.626;2023-09-19T00:26:57;19.70;99.90
16174;DHT22;14031;50.158;8.626;2023-09-19T00:29:25;19.70;99.90
16174;DHT22;14031;50.158;8.626;2023-09-19T00:31:54;19.70;99.90
16174;DHT22;14031;50.158;8.626;2023-09-19T00:34:21;19.60;99.90
16174;DHT22;14031;50.158;8.626;2023-09-19T00:36:50;19.60;99.90
16174;DHT22;14031;50.158;8.626;2023-09-19T00:39:18;19.60;99.90
16174;DHT22;14031;50.158;8.626;2023-09-19T00:41:45;19.60;99.90
16174;DHT22;14031;50.158;8.626;2023-09-19T00:44:13;19.60;99.90
16174;DHT22;14031;50.158;8.626;2023-09-19T00:46:41;19.50;99.90
16174;DHT22;14031;50.158;8.626;2023-09-19T00:49:09;19.50;99.90
16174;DHT22;14031;50.158;8.626;2023-09-19T00:51:36;19.50;99.90
16174;DHT22;14031;50.158;8.626;2023-09-19T00:54:05;19.60;99.90
16174;DHT22;14031;50.158;8.626;2023-09-19T00:56:32;19.60;99.90
16174;DHT22;14031;50.158;8.626;2023-09-19T00:58:59;19.60;99.90
16174;DHT22;14031;50.158;8.626;2023-09-19T01:01:27;19.50;99.90
16174;DHT22;14031;50.158;8.626;2023-09-19T01:03:53;19.50;99.90
16174;DHT22;14031;50.158;8.626;2023-09-19T01:06:20;19.50;99.90
16174;DHT22;14031;50.158;8.626;2023-09-19T01:08:47;19.50;99.90
16174;DHT22;14031;50.158;8.626;2023-09-19T01:11:21;19.50;99.90
16174;DHT22;14031;50.158;8.626;2023-09-19T01:13:57;19.50;99.90
16174;DHT22;14031;50.158;8.626;2023-09-19T01:16:32;19.50;99.90
16174;DHT22;14031;50.158;8.626;2023-09-19T01:19:14;19.50;99.90
16174;DHT22;14031;50.158;8.626;2023-09-19T01:21:57;19.50;99.90
16174;DHT22;14031;50.158;8.626;2023-09-19T01:24:54;19.50;99.90
16174;DHT22;14031;50.158;8.626;2023-09-19T01:27:49;19.50;99.90
16174;DHT22;14031;50.158;8.626;2023-09-19T01:30:24;19.50;99.90
16174;DHT22;14031;50.158;8.626;2023-09-19T01:32:53;19.50;99.90
16174;DHT22;14031;50.158;8.626;2023-09-19T01:35:20;19.50;99.90
16174;DHT22;14031;50.158;8.626;2023-09-19T01:37:47;19.50;99.90
16174;DHT22;14031;50.158;8.626;2023-09-19T01:40:16;19.50;99.90
16174;DHT22;14031;50.158;8.626;2023-09-19T01:42:54;19.40;99.90
16174;DHT22;14031;50.158;8.626;2023-09-19T01:45:32;19.40;99.90
16174;DHT22;14031;50.158;8.626;2023-09-19T01:48:09;19.40;99.90
16174;DHT22;14031;50.158;8.626;2023-09-19T01:50:45;19.40;99.90
16174;DHT22;14031;50.158;8.626;2023-09-19T01:53:21;19.40;99.90
16174;DHT22;14031;50.158;8.626;2023-09-19T01:55:50;19.40;99.90
16174;DHT22;14031;50.158;8.626;2023-09-19T01:58:30;19.40;99.90
16174;DHT22;14031;50.158;8.626;2023-09-19T02:01:01;19.40;99.90
16174;DHT22;14031;50.158;8.626;2023-09-19T02:03:31;19.40;99.90
16174;DHT22;14031;50.158;8.626;2023-09-19T02:06:00;19.40;99.90
16174;DHT22;14031;50.158;8.626;2023-09-19T02:08:28;19.40;99.90
16174;DHT22;14031;50.158;8.626;2023-09-19T02:10:56;19.30;99.90
16174;DHT22;14031;50.158;8.626;2023-09-19T02:13:23;19.30;99.90
16174;DHT22;14031;50.158;8.626;2023-09-19T02:15:52;19.30;99.90
16174;DHT22;14031;50.158;8.626;2023-09-19T02:18:20;19.30;99.90
16174;DHT22;14031;50.158;8.626;2023-09-19T02:20:47;19.30;99.90
16174;DHT22;14031;50.158;8.626;2023-09-19T02:23:14;19.30;99.90
16174;DHT22;14031;50.158;8.626;2023-09-19T02:25:51;19.20;99.90
16174;DHT22;14031;50.158;8.626;2023-09-19T02:28:17;19.20;99.90
16174;DHT22;14031;50.158;8.626;2023-09-19T02:30:47;19.20;99.90
16174;DHT22;14031;50.158;8.626;2023-09-19T02:33:14;19.20;99.90
16174;DHT22;14031;50.158;8.626;2023-09-19T02:35:42;19.20;99.90
16174;DHT22;14031;50.158;8.626;2023-09-19T02:38:08;19.10;99.90
16174;DHT22;14031;50.158;8.626;2023-09-19T02:40:37;19.10;99.90
16174;DHT22;14031;50.158;8.626;2023-09-19T02:43:04;19.10;99.90
16174;DHT22;14031;50.158;8.626;2023-09-19T02:45:32;19.00;99.90
16174;DHT22;14031;50.158;8.626;2023-09-19T02:48:00;19.00;99.90
16174;DHT22;14031;50.158;8.626;2023-09-19T02:50:28;19.10;99.90
16174;DHT22;14031;50.158;8.626;2023-09-19T02:52:56;19.10;99.90
16174;DHT22;14031;50.158;8.626;2023-09-19T02:55:23;19.10;99.90
16174;DHT22;14031;50.158;8.626;2023-09-19T02:57:52;19.10;99.90
16174;DHT22;14031;50.158;8.626;2023-09-19T03:00:21;19.00;99.90
16174;DHT22;14031;50.158;8.626;2023-09-19T03:02:48;19.00;99.90
16174;DHT22;14031;50.158;8.626;2023-09-19T03:05:15;18.90;99.90
16174;DHT22;14031;50.158;8.626;2023-09-19T03:07:45;18.90;99.90
16174;DHT22;14031;50.158;8.626;2023-09-19T03:10:13;18.90;99.90
16174;DHT22;14031;50.158;8.626;2023-09-19T03:12:41;19.00;99.90
16174;DHT22;14031;50.158;8.626;2023-09-19T03:15:08;18.90;99.90
16174;DHT22;14031;50.158;8.626;2023-09-19T03:17:36;18.90;99.90
16174;DHT22;14031;50.158;8.626;2023-09-19T03:20:04;18.90;99.90
16174;DHT22;14031;50.158;8.626;2023-09-19T03:22:33;18.80;99.90
16174;DHT22;14031;50.158;8.626;2023-09-19T03:25:00;18.80;99.90
16174;DHT22;14031;50.158;8.626;2023-09-19T03:27:28;18.80;99.90
16174;DHT22;14031;50.158;8.626;2023-09-19T03:29:55;18.80;99.90
16174;DHT22;14031;50.158;8.626;2023-09-19T03:32:22;18.70;99.90
16174;DHT22;14031;50.158;8.626;2023-09-19T03:34:49;18.70;99.90
16174;DHT22;14031;50.158;8.626;2023-09-19T03:37:16;18.70;99.90
16174;DHT22;14031;50.158;8.626;2023-09-19T03:39:43;18.70;99.90
16174;DHT22;14031;50.158;8.626;2023-09-19T03:42:10;18.60;99.90
16174;DHT22;14031;50.158;8.626;2023-09-19T03:44:38;18.60;99.90
16174;DHT22;14031;50.158;8.626;2023-09-19T03:47:05;18.60;99.90
16174;DHT22;14031;50.158;8.626;2023-09-19T03:49:33;18.60;99.90
16174;DHT22;14031;50.158;8.626;2023-09-19T03:52:00;18.60;99.90
16174;DHT22;14031;50.158;8.626;2023-09-19T03:54:27;18.60;99.90
16174;DHT22;14031;50.158;8.626;2023-09-19T03:56:54;18.60;99.90
16174;DHT22;14031;50.158;8.626;2023-09-19T03:59:21;18.50;99.90
16174;DHT22;14031;50.158;8.626;2023-09-19T04:01:50;18.50;99.90
16174;DHT22;14031;50.158;8.626;2023-09-19T04:04:21;18.50;99.90
16174;DHT22;14031;50.158;8.626;2023-09-19T04:06:50;18.50;99.90
16174;DHT22;14031;50.158;8.626;2023-09-19T04:09:17;18.50;99.90
16174;DHT22;14031;50.158;8.626;2023-09-19T04:11:44;18.40;99.90
16174;DHT22;14031;50.158;8.626;2023-09-19T04:14:11;18.50;99.90
16174;DHT22;14031;50.158;8.626;2023-09-19T04:16:37;18.40;99.90
16174;DHT22;14031;50.158;8.626;2023-09-19T04:19:05;18.50;99.90
16174;DHT22;14031;50.158;8.626;2023-09-19T04:21:32;18.50;99.90
16174;DHT22;14031;50.158;8.626;2023-09-19T04:23:59;18.50;99.90
16174;DHT22;14031;50.158;8.626;2023-09-19T04:26:26;18.50;99.90
16174;DHT22;14031;50.158;8.626;2023-09-19T04:28:52;18.50;99.90
16174;DHT22;14031;50.158;8.626;2023-09-19T04:31:19;18.40;99.90
16174;DHT22;14031;50.158;8.626;2023-09-19T04:33:47;18.50;99.90
16174;DHT22;14031;50.158;8.626;2023-09-19T04:36:15;18.50;99.90
16174;DHT22;14031;50.158;8.626;2023-09-19T04:38:42;18.50;99.90
16174;DHT22;14031;50.158;8.626;2023-09-19T04:41:10;18.50;99.90
16174;DHT22;14031;50.158;8.626;2023-09-19T04:43:37;18.50;99.90
16174;DHT22;14031;50.158;8.626;2023-09-19T04:46:03;18.50;99.90
16174;DHT22;14031;50.158;8.626;2023-09-19T04:48:32;18.50;99.90
16174;DHT22;14031;50.158;8.626;2023-09-19T04:51:00;18.50;99.90
16174;DHT22;14031;50.158;8.626;2023-09-19T04:53:28;18.50;99.90
16174;DHT22;14031;50.158;8.626;2023-09-19T04:55:55;18.50;99.90
16174;DHT22;14031;50.158;8.626;2023-09-19T04:58:22;18.40;99.90
16174;DHT22;14031;50.158;8.626;2023-09-19T05:00:48;18.40;99.90
16174;DHT22;14031;50.158;8.626;2023-09-19T05:03:16;18.40;99.90
16174;DHT22;14031;50.158;8.626;2023-09-19T05:05:45;18.30;99.90
16174;DHT22;14031;50.158;8.626;2023-09-19T05:08:11;18.30;99.90
16174;DHT22;14031;50.158;8.626;2023-09-19T05:10:41;18.40;99.90
16174;DHT22;14031;50.158;8.626;2023-09-19T05:13:08;18.30;99.90
16174;DHT22;14031;50.158;8.626;2023-09-19T05:15:35;18.40;99.90
16174;DHT22;14031;50.158;8.626;2023-09-19T05:18:02;18.30;99.90
16174;DHT22;14031;50.158;8.626;2023-09-19T05:20:29;18.30;99.90
16174;DHT22;14031;50.158;8.626;2023-09-19T05:22:59;18.30;99.90
16174;DHT22;14031;50.158;8.626;2023-09-19T05:25:27;18.30;99.90
16174;DHT22;14031;50.158;8.626;2023-09-19T05:27:56;18.30;99.90
16174;DHT22;14031;50.158;8.626;2023-09-19T05:30:26;18.30;99.90
16174;DHT22;14031;50.158;8.626;2023-09-19T05:32:54;18.30;99.90
16174;DHT22;14031;50.158;8.626;2023-09-19T05:35:21;18.30;99.90
16174;DHT22;14031;50.158;8.626;2023-09-19T05:37:50;18.30;99.90
16174;DHT22;14031;50.158;8.626;2023-09-19T05:40:17;18.30;99.90
16174;DHT22;14031;50.158;8.626;2023-09-19T05:42:44;18.30;99.90
16174;DHT22;14031;50.158;8.626;2023-09-19T05:45:12;18.30;99.90
16174;DHT22;14031;50.158;8.626;2023-09-19T05:47:39;18.30;99.90
16174;DHT22;14031;50.158;8.626;2023-09-19T05:50:09;18.30;99.90
16174;DHT22;14031;50.158;8.626;2023-09-19T05:52:36;18.40;99.90
16174;DHT22;14031;50.158;8.626;2023-09-19T05:55:03;18.40;99.90
16174;DHT22;14031;50.158;8.626;2023-09-19T05:57:30;18.40;99.90
16174;DHT22;14031;50.158;8.626;2023-09-19T05:59:58;18.40;99.90
16174;DHT22;14031;50.158;8.626;2023-09-19T06:02:26;18.50;99.90
16174;DHT22;14031;50.158;8.626;2023-09-19T06:04:54;18.40;99.90
16174;DHT22;14031;50.158;8.626;2023-09-19T06:07:21;18.40;99.90
16174;DHT22;14031;50.158;8.626;2023-09-19T06:09:48;18.50;99.90
16174;DHT22;14031;50.158;8.626;2023-09-19T06:12:15;18.50;99.90
16174;DHT22;14031;50.158;8.626;2023-09-19T06:14:42;18.50;99.90
16174;DHT22;14031;50.158;8.626;2023-09-19T06:17:09;18.50;99.90
16174;DHT22;14031;50.158;8.626;2023-09-19T06:19:37;18.50;99.90
16174;DHT22;14031;50.158;8.626;2023-09-19T06:22:04;18.50;99.90
16174;DHT22;14031;50.158;8.626;2023-09-19T06:24:31;18.60;99.90
16174;DHT22;14031;50.158;8.626;2023-09-19T06:26:58;18.60;99.90
16174;DHT22;14031;50.158;8.626;2023-09-19T06:29:27;18.70;99.90
16174;DHT22;14031;50.158;8.626;2023-09-19T06:31:54;18.70;99.90
16174;DHT22;14031;50.158;8.626;2023-09-19T06:34:21;18.80;99.90
16174;DHT22;14031;50.158;8.626;2023-09-19T06:36:51;18.80;99.90
16174;DHT22;14031;50.158;8.626;2023-09-19T06:39:18;18.80;99.90
16174;DHT22;14031;50.158;8.626;2023-09-19T06:41:44;19.00;99.90
16174;DHT22;14031;50.158;8.626;2023-09-19T06:44:11;18.90;99.90
16174;DHT22;14031;50.158;8.626;2023-09-19T06:46:38;18.90;99.90
16174;DHT22;14031;50.158;8.626;2023-09-19T06:49:06;18.90;99.90
16174;DHT22;14031;50.158;8.626;2023-09-19T06:51:33;19.00;99.90
16174;DHT22;14031;50.158;8.626;2023-09-19T06:54:03;19.10;99.90
16174;DHT22;14031;50.158;8.626;2023-09-19T06:56:30;19.20;99.90
16174;DHT22;14031;50.158;8.626;2023-09-19T06:58:58;19.10;99.90
16174;DHT22;14031;50.158;8.626;2023-09-19T07:01:25;19.20;99.90
16174;DHT22;14031;50.158;8.626;2023-09-19T07:03:52;19.20;99.90
16174;DHT22;14031;50.158;8.626;2023-09-19T07:06:18;19.20;99.90
16174;DHT22;14031;50.158;8.626;2023-09-19T07:08:45;19.30;99.90
16174;DHT22;14031;50.158;8.626;2023-09-19T07:11:13;19.40;99.90
16174;DHT22;14031;50.158;8.626;2023-09-19T07:13:41;19.40;99.90
16174;DHT22;14031;50.158;8.626;2023-09-19T07:16:08;19.40;99.90
16174;DHT22;14031;50.158;8.626;2023-09-19T07:18:35;19.30;99.90
16174;DHT22;14031;50.158;8.626;2023-09-19T07:21:03;19.20;99.90
16174;DHT22;14031;50.158;8.626;2023-09-19T07:23:31;19.30;99.90
16174;DHT22;14031;50.158;8.626;2023-09-19T07:26:00;19.30;99.90
16174;DHT22;14031;50.158;8.626;2023-09-19T07:28:32;19.40;99.90
16174;DHT22;14031;50.158;8.626;2023-09-19T07:31:01;19.30;99.90
16174;DHT22;14031;50.158;8.626;2023-09-19T07:33:30;19.30;99.90
16174;DHT22;14031;50.158;8.626;2023-09-19T07:35:57;19.40;99.90
16174;DHT22;14031;50.158;8.626;2023-09-19T07:38:24;19.40;99.90
16174;DHT22;14031;50.158;8.626;2023-09-19T07:40:52;19.60;99.90
16174;DHT22;14031;50.158;8.626;2023-09-19T07:43:19;19.60;99.90
16174;DHT22;14031;50.158;8.626;2023-09-19T07:45:47;19.70;99.90
16174;DHT22;14031;50.158;8.626;2023-09-19T07:48:14;19.70;99.90
16174;DHT22;14031;50.158;8.626;2023-09-19T07:50:42;19.90;99.90
16174;DHT22;14031;50.158;8.626;2023-09-19T07:53:10;19.90;99.90
16174;DHT22;14031;50.158;8.626;2023-09-19T07:55:38;19.90;99.90
16174;DHT22;14031;50.158;8.626;2023-09-19T07:58:06;19.90;99.90
16174;DHT22;14031;50.158;8.626;2023-09-19T08:00:33;19.90;99.90
16174;DHT22;14031;50.158;8.626;2023-09-19T08:03:02;19.90;99.90
16174;DHT22;14031;50.158;8.626;2023-09-19T08:05:29;20.00;99.90
16174;DHT22;14031;50.158;8.626;2023-09-19T08:07:56;19.90;99.90
16174;DHT22;14031;50.158;8.626;2023-09-19T08:10:24;19.90;99.90
16174;DHT22;14031;50.158;8.626;2023-09-19T08:12:53;20.00;99.90
16174;DHT22;14031;50.158;8.626;2023-09-19T08:15:23;19.90;99.90
16174;DHT22;14031;50.158;8.626;2023-09-19T08:17:50;20.00;99.90
16174;DHT22;14031;50.158;8.626;2023-09-19T08:20:18;19.90;99.90
16174;DHT22;14031;50.158;8.626;2023-09-19T08:22:47;19.90;99.90
16174;DHT22;14031;50.158;8.626;2023-09-19T08:25:15;20.00;99.90
16174;DHT22;14031;50.158;8.626;2023-09-19T08:27:44;20.00;99.90
16174;DHT22;14031;50.158;8.626;2023-09-19T08:30:13;20.10;99.90
16174;DHT22;14031;50.158;8.626;2023-09-19T08:32:41;20.00;99.90
16174;DHT22;14031;50.158;8.626;2023-09-19T08:35:08;20.00;99.90
16174;DHT22;14031;50.158;8.626;2023-09-19T08:37:37;20.00;99.90
16174;DHT22;14031;50.158;8.626;2023-09-19T08:40:04;20.00;99.90
16174;DHT22;14031;50.158;8.626;2023-09-19T08:42:47;19.80;99.90
16174;DHT22;14031;50.158;8.626;2023-09-19T08:45:14;19.90;99.90
16174;DHT22;14031;50.158;8.626;2023-09-19T08:47:46;19.90;99.90
16174;DHT22;14031;50.158;8.626;2023-09-19T08:50:19;20.10;99.90
16174;DHT22;14031;50.158;8.626;2023-09-19T08:52:51;20.00;99.90
16174;DHT22;14031;50.158;8.626;2023-09-19T08:55:23;20.00;99.90
16174;DHT22;14031;50.158;8.626;2023-09-19T08:57:59;20.10;99.90
16174;DHT22;14031;50.158;8.626;2023-09-19T09:00:28;20.20;99.90
16174;DHT22;14031;50.158;8.626;2023-09-19T09:02:56;20.20;99.90
16174;DHT22;14031;50.158;8.626;2023-09-19T09:05:23;20.30;99.90
16174;DHT22;14031;50.158;8.626;2023-09-19T09:07:53;20.30;99.90
16174;DHT22;14031;50.158;8.626;2023-09-19T09:10:22;20.30;99.90
16174;DHT22;14031;50.158;8.626;2023-09-19T09:12:50;20.40;99.90
16174;DHT22;14031;50.158;8.626;2023-09-19T09:15:19;20.50;99.90
16174;DHT22;14031;50.158;8.626;2023-09-19T09:17:49;20.60;99.90
16174;DHT22;14031;50.158;8.626;2023-09-19T09:20:16;20.60;99.90
16174;DHT22;14031;50.158;8.626;2023-09-19T09:22:52;20.60;99.90
16174;DHT22;14031;50.158;8.626;2023-09-19T09:25:20;20.60;99.90
16174;DHT22;14031;50.158;8.626;2023-09-19T09:27:58;20.60;99.90
16174;DHT22;14031;50.158;8.626;2023-09-19T09:30:33;20.50;99.90
16174;DHT22;14031;50.158;8.626;2023-09-19T09:33:11;20.50;99.90
16174;DHT22;14031;50.158;8.626;2023-09-19T09:35:47;20.40;99.90
16174;DHT22;14031;50.158;8.626;2023-09-19T09:38:19;20.40;99.90
16174;DHT22;14031;50.158;8.626;2023-09-19T09:40:47;20.40;99.90
16174;DHT22;14031;50.158;8.626;2023-09-19T09:43:32;20.30;99.90
16174;DHT22;14031;50.158;8.626;2023-09-19T09:46:13;20.20;99.90
16174;DHT22;14031;50.158;8.626;2023-09-19T09:49:01;20.20;99.90
16174;DHT22;14031;50.158;8.626;2023-09-19T09:51:59;20.20;99.90
16174;DHT22;14031;50.158;8.626;2023-09-19T09:54:32;20.30;99.90
16174;DHT22;14031;50.158;8.626;2023-09-19T09:57:04;20.40;99.90
16174;DHT22;14031;50.158;8.626;2023-09-19T09:59:53;20.50;99.90
16174;DHT22;14031;50.158;8.626;2023-09-19T10:02:25;20.60;99.90
16174;DHT22;14031;50.158;8.626;2023-09-19T10:04:55;20.70;99.90
16174;DHT22;14031;50.158;8.626;2023-09-19T10:07:36;20.70;99.90
16174;DHT22;14031;50.158;8.626;2023-09-19T10:10:09;20.70;99.90
16174;DHT22;14031;50.158;8.626;2023-09-19T10:12:44;20.70;99.90
16174;DHT22;14031;50.158;8.626;2023-09-19T10:15:15;20.70;99.90
16174;DHT22;14031;50.158;8.626;2023-09-19T10:17:43;20.70;99.90
16174;DHT22;14031;50.158;8.626;2023-09-19T10:20:13;20.60;99.90
16174;DHT22;14031;50.158;8.626;2023-09-19T10:23:00;20.60;99.90
16174;DHT22;14031;50.158;8.626;2023-09-19T10:25:29;20.70;99.90
16174;DHT22;14031;50.158;8.626;2023-09-19T10:27:58;20.80;99.90
16174;DHT22;14031;50.158;8.626;2023-09-19T10:30:29;20.90;99.90
16174;DHT22;14031;50.158;8.626;2023-09-19T10:33:01;21.00;99.90
16174;DHT22;14031;50.158;8.626;2023-09-19T10:35:28;21.00;99.90
16174;DHT22;14031;50.158;8.626;2023-09-19T10:37:59;21.00;99.90
16174;DHT22;14031;50.158;8.626;2023-09-19T10:40:29;21.00;99.90
16174;DHT22;14031;50.158;8.626;2023-09-19T10:43:01;21.10;99.90
16174;DHT22;14031;50.158;8.626;2023-09-19T10:45:31;21.10;99.90
16174;DHT22;14031;50.158;8.626;2023-09-19T10:47:58;21.10;99.90
16174;DHT22;14031;50.158;8.626;2023-09-19T10:50:26;21.20;99.90
16174;DHT22;14031;50.158;8.626;2023-09-19T10:53:00;21.30;99.90
16174;DHT22;14031;50.158;8.626;2023-09-19T10:55:32;21.30;99.90
16174;DHT22;14031;50.158;8.626;2023-09-19T10:58:01;21.20;99.90
16174;DHT22;14031;50.158;8.626;2023-09-19T11:00:53;21.30;99.90
16174;DHT22;14031;50.158;8.626;2023-09-19T11:03:22;21.30;99.90
16174;DHT22;14031;50.158;8.626;2023-09-19T11:06:03;21.40;99.90
16174;DHT22;14031;50.158;8.626;2023-09-19T11:09:00;21.40;99.90
16174;DHT22;14031;50.158;8.626;2023-09-19T11:11:54;21.60;99.90
16174;DHT22;14031;50.158;8.626;2023-09-19T11:14:30;21.60;99.90
16174;DHT22;14031;50.158;8.626;2023-09-19T11:20:23;21.80;99.90
16174;DHT22;14031;50.158;8.626;2023-09-19T11:23:25;21.90;99.90
16174;DHT22;14031;50.158;8.626;2023-09-19T11:25:53;22.00;99.90
16174;DHT22;14031;50.158;8.626;2023-09-19T11:28:34;21.90;99.90
16174;DHT22;14031;50.158;8.626;2023-09-19T11:34:47;21.90;99.90
16174;DHT22;14031;50.158;8.626;2023-09-19T11:40:45;21.70;99.90
16174;DHT22;14031;50.158;8.626;2023-09-19T11:43:32;21.80;99.90
16174;DHT22;14031;50.158;8.626;2023-09-19T11:46:09;21.90;99.90
16174;DHT22;14031;50.158;8.626;2023-09-19T11:48:38;22.00;99.90
16174;DHT22;14031;50.158;8.626;2023-09-19T11:51:14;21.90;99.90
16174;DHT22;14031;50.158;8.626;2023-09-19T11:53:49;21.80;99.90
16174;DHT22;14031;50.158;8.626;2023-09-19T11:56:17;21.80;99.90
16174;DHT22;14031;50.158;8.626;2023-09-19T11:58:49;21.90;99.90
16174;DHT22;14031;50.158;8.626;2023-09-19T12:01:23;22.00;99.90
16174;DHT22;14031;50.158;8.626;2023-09-19T12:03:54;22.10;99.90
16174;DHT22;14031;50.158;8.626;2023-09-19T12:06:23;22.10;99.90
16174;DHT22;14031;50.158;8.626;2023-09-19T12:08:50;22.40;99.90
16174;DHT22;14031;50.158;8.626;2023-09-19T12:11:19;22.70;99.90
16174;DHT22;14031;50.158;8.626;2023-09-19T12:13:50;22.90;99.90
16174;DHT22;14031;50.158;8.626;2023-09-19T12:16:19;22.90;99.90
16174;DHT22;14031;50.158;8.626;2023-09-19T12:18:49;22.90;99.90
16174;DHT22;14031;50.158;8.626;2023-09-19T12:21:26;23.10;99.90
16174;DHT22;14031;50.158;8.626;2023-09-19T12:24:11;23.10;99.90
16174;DHT22;14031;50.158;8.626;2023-09-19T12:26:42;23.20;99.90
16174;DHT22;14031;50.158;8.626;2023-09-19T12:29:14;23.30;99.90
16174;DHT22;14031;50.158;8.626;2023-09-19T12:31:50;23.40;99.90
16174;DHT22;14031;50.158;8.626;2023-09-19T12:34:19;23.60;99.90
16174;DHT22;14031;50.158;8.626;2023-09-19T12:36:47;23.70;99.90
16174;DHT22;14031;50.158;8.626;2023-09-19T12:39:23;23.90;99.90
16174;DHT22;14031;50.158;8.626;2023-09-19T12:41:51;24.10;99.90
16174;DHT22;14031;50.158;8.626;2023-09-19T12:44:20;24.20;99.90
16174;DHT22;14031;50.158;8.626;2023-09-19T12:46:50;24.40;99.90
16174;DHT22;14031;50.158;8.626;2023-09-19T12:49:19;24.50;99.90
16174;DHT22;14031;50.158;8.626;2023-09-19T12:51:47;24.50;99.90
16174;DHT22;14031;50.158;8.626;2023-09-19T12:54:14;24.60;99.90
16174;DHT22;14031;50.158;8.626;2023-09-19T12:56:42;24.70;99.90
16174;DHT22;14031;50.158;8.626;2023-09-19T12:59:12;24.80;99.90
16174;DHT22;14031;50.158;8.626;2023-09-19T13:01:46;24.80;99.90
16174;DHT22;14031;50.158;8.626;2023-09-19T13:04:29;24.90;99.90
16174;DHT22;14031;50.158;8.626;2023-09-19T13:06:57;25.00;99.90
16174;DHT22;14031;50.158;8.626;2023-09-19T13:09:27;25.00;99.90
16174;DHT22;14031;50.158;8.626;2023-09-19T13:12:00;25.10;99.90
16174;DHT22;14031;50.158;8.626;2023-09-19T13:14:28;24.90;99.90
16174;DHT22;14031;50.158;8.626;2023-09-19T13:17:00;24.80;99.90
16174;DHT22;14031;50.158;8.626;2023-09-19T13:19:38;24.70;99.90
16174;DHT22;14031;50.158;8.626;2023-09-19T13:22:37;24.80;99.90
16174;DHT22;14031;50.158;8.626;2023-09-19T13:25:06;24.80;99.90
16174;DHT22;14031;50.158;8.626;2023-09-19T13:27:33;24.90;99.90
16174;DHT22;14031;50.158;8.626;2023-09-19T13:30:00;25.20;99.90
16174;DHT22;14031;50.158;8.626;2023-09-19T13:32:28;25.30;99.90
16174;DHT22;14031;50.158;8.626;2023-09-19T13:34:55;25.40;99.90
16174;DHT22;14031;50.158;8.626;2023-09-19T13:37:23;25.40;99.90
16174;DHT22;14031;50.158;8.626;2023-09-19T13:39:51;25.40;99.90
16174;DHT22;14031;50.158;8.626;2023-09-19T13:42:19;25.40;99.90
16174;DHT22;14031;50.158;8.626;2023-09-19T13:44:47;25.20;99.90
16174;DHT22;14031;50.158;8.626;2023-09-19T13:47:14;25.10;99.90
16174;DHT22;14031;50.158;8.626;2023-09-19T13:49:43;25.10;99.90
16174;DHT22;14031;50.158;8.626;2023-09-19T13:52:10;25.10;99.90
16174;DHT22;14031;50.158;8.626;2023-09-19T13:54:38;25.20;99.90
16174;DHT22;14031;50.158;8.626;2023-09-19T13:57:05;25.40;99.90
16174;DHT22;14031;50.158;8.626;2023-09-19T13:59:33;25.50;99.90
16174;DHT22;14031;50.158;8.626;2023-09-19T14:01:59;25.80;99.90
16174;DHT22;14031;50.158;8.626;2023-09-19T14:04:27;26.10;99.90
16174;DHT22;14031;50.158;8.626;2023-09-19T14:06:55;26.40;99.90
16174;DHT22;14031;50.158;8.626;2023-09-19T14:09:23;26.60;99.90
16174;DHT22;14031;50.158;8.626;2023-09-19T14:11:50;26.80;99.90
16174;DHT22;14031;50.158;8.626;2023-09-19T14:14:18;27.00;99.90
16174;DHT22;14031;50.158;8.626;2023-09-19T14:16:44;27.20;99.90
16174;DHT22;14031;50.158;8.626;2023-09-19T14:19:11;27.40;99.90
16174;DHT22;14031;50.158;8.626;2023-09-19T14:21:39;27.60;99.90
16174;DHT22;14031;50.158;8.626;2023-09-19T14:24:07;27.60;99.70
16174;DHT22;14031;50.158;8.626;2023-09-19T14:26:35;27.30;99.90
16174;DHT22;14031;50.158;8.626;2023-09-19T14:29:01;27.10;99.90
16174;DHT22;14031;50.158;8.626;2023-09-19T14:31:28;27.10;99.90
16174;DHT22;14031;50.158;8.626;2023-09-19T14:33:55;27.10;99.90
16174;DHT22;14031;50.158;8.626;2023-09-19T14:36:23;27.00;99.90
16174;DHT22;14031;50.158;8.626;2023-09-19T14:38:52;27.30;99.90
16174;DHT22;14031;50.158;8.626;2023-09-19T14:41:22;27.40;99.90
16174;DHT22;14031;50.158;8.626;2023-09-19T14:43:51;27.40;99.90
16174;DHT22;14031;50.158;8.626;2023-09-19T14:46:18;27.20;99.50
16174;DHT22;14031;50.158;8.626;2023-09-19T14:48:45;27.10;99.90
16174;DHT22;14031;50.158;8.626;2023-09-19T14:51:13;27.10;99.90
16174;DHT22;14031;50.158;8.626;2023-09-19T14:53:40;27.10;99.50
16174;DHT22;14031;50.158;8.626;2023-09-19T14:56:08;27.30;99.90
16174;DHT22;14031;50.158;8.626;2023-09-19T14:58:37;27.50;99.20
16174;DHT22;14031;50.158;8.626;2023-09-19T15:01:05;27.90;99.90
16174;DHT22;14031;50.158;8.626;2023-09-19T15:03:32;28.20;99.10
16174;DHT22;14031;50.158;8.626;2023-09-19T15:06:00;28.30;99.20
16174;DHT22;14031;50.158;8.626;2023-09-19T15:08:27;28.50;99.10
16174;DHT22;14031;50.158;8.626;2023-09-19T15:10:54;28.40;97.70
16174;DHT22;14031;50.158;8.626;2023-09-19T15:13:21;28.20;97.00
16174;DHT22;14031;50.158;8.626;2023-09-19T15:15:50;27.90;97.60
16174;DHT22;14031;50.158;8.626;2023-09-19T15:18:17;27.70;98.70
16174;DHT22;14031;50.158;8.626;2023-09-19T15:20:44;27.30;98.10
16174;DHT22;14031;50.158;8.626;2023-09-19T15:23:11;27.00;98.50
16174;DHT22;14031;50.158;8.626;2023-09-19T15:25:38;26.70;99.40
16174;DHT22;14031;50.158;8.626;2023-09-19T15:28:06;26.50;99.90
16174;DHT22;14031;50.158;8.626;2023-09-19T15:30:37;26.50;99.90
16174;DHT22;14031;50.158;8.626;2023-09-19T15:33:05;26.60;99.90
16174;DHT22;14031;50.158;8.626;2023-09-19T15:35:32;26.70;99.90
16174;DHT22;14031;50.158;8.626;2023-09-19T15:37:58;26.70;99.90
16174;DHT22;14031;50.158;8.626;2023-09-19T15:40:26;26.80;99.90
16174;DHT22;14031;50.158;8.626;2023-09-19T15:42:54;26.90;99.90
16174;DHT22;14031;50.158;8.626;2023-09-19T15:45:21;26.70;99.90
16174;DHT22;14031;50.158;8.626;2023-09-19T15:47:48;26.60;99.90
16174;DHT22;14031;50.158;8.626;2023-09-19T15:50:16;26.50;99.90
16174;DHT22;14031;50.158;8.626;2023-09-19T15:52:43;26.40;99.90
16174;DHT22;14031;50.158;8.626;2023-09-19T15:55:11;26.40;99.90
16174;DHT22;14031;50.158;8.626;2023-09-19T15:57:38;26.50;99.90